Datum max min   Außentemperatur Tagesdurchschnitt Außenfeuchte Tagesdurchschnitt Taupunkt Tagesdurchschnitt Windchill Tagesdurchschnitt Windgeschwindigkeit Tagesdurchschnitt   Mindesttemperatur Höchsttemperatur Höchste Windgeschwindigkeit  Tägliche Niederschlagsmenge 
  °C % °C °C km/h   °C °C km/h mm/m²
 
 
01.01.1968     1000,6 -3,2           -5,0 -1,8   1,9
02.01.1968     1000,5 -4,4           -6,9 -3,1   0,8
03.01.1968     1005,5 -6,4           -7,3 -3,1   0,6
04.01.1968     1005,1 -3,5           -7,1 -1,9   1,6
05.01.1968     1007,7 -5,0           -6,4 -3,6   15,6
06.01.1968     998,9 -3,2           -5,4 3,7   5,8
07.01.1968     1001,5 -7,8           -9,5 -5,3   0,0
08.01.1968     1011,0 -9,2           -11,2 -6,3   2,2
09.01.1968     1007,3 -12,3           -14,9 -8,3   0,1
10.01.1968     1010,6 -11,8           -18,9 -10,5   0,5
11.01.1968     999,8 -7,8           -11,3 -5,2   0,2
12.01.1968     1010,2 -13,7           -14,7 -8,2   1,0
13.01.1968     1023,7 -14,2           -15,6 -11,8   0,1
14.01.1968     1007,5 -3,1           -16,4 2,1   18,1
15.01.1968     1006,7 4,2           2,0 5,4   7,8
16.01.1968     1014,3 3,2           2,1 4,3   0,4
17.01.1968     1009,1 3,8           1,5 4,8   1,1
18.01.1968     1015,3 0,2           -1,1 3,7   2,5
19.01.1968     1025,8 -0,3           -1,5 2,5   0,0
20.01.1968     1033,0 -2,1           -5,1 2,0   0,1
21.01.1968     1029,5 -3,2           -6,5 2,5   0,0
22.01.1968     1026,3 -2,0           -6,7 0,4   0,1
23.01.1968     1021,1 -4,7           -8,0 -1,1   0,0
24.01.1968     1008,1 -2,9           -4,1 -2,2   6,2
25.01.1968     1006,3 -0,9           -2,8 -0,6   8,4
26.01.1968     1001,3 -2,4           -3,8 1,3   6,0
27.01.1968     1009,5 -1,2           -4,4 -0,1   0,4
28.01.1968     1010,6 0,8           -0,2 1,5   1,2
29.01.1968     1018,7 -1,3           -3,6 0,6   0,0
30.01.1968     1021,5 -0,4           -2,1 0,1   0,0
31.01.1968     1022,6 1,1           -0,5 1,6   0,0
01.02.1968     1018,1 2,8           -1,2 4,5   0,0
02.02.1968     1017,3 1,0           0,4 3,9   0,7
03.02.1968     1013,0 0,3           -0,3 1,6   0,1
04.02.1968     1015,1 -0,1           -0,8 1,4   0,3
05.02.1968     1009,9 -1,0           -2,1 1,0   0,0
06.02.1968     1003,5 -0,6           -2,1 0,4   0,7
07.02.1968     1004,3 1,4           -1,2 5,8   0,0
08.02.1968     1007,3 0,2           -1,4 4,3   0,0
09.02.1968     1008,7 -0,2           -2,0 1,2   2,4
10.02.1968     1013,3 0,6           0,4 1,3   0,3
11.02.1968     1014,2 -0,9           -1,4 0,5   0,0
12.02.1968     1007,8 -1,8           -4,7 2,0   0,6
13.02.1968     1007,3 2,2           -2,6 3,4   0,1
14.02.1968     1006,3 1,6           0,9 3,9   2,9
15.02.1968     1001,9 1,8           0,5 4,4   4,1
16.02.1968     1007,0 -3,8           -5,9 0,5   0,5
17.02.1968     1011,4 -5,6           -7,2 -1,0   1,5
18.02.1968     1013,5 -3,9           -8,0 -1,0   1,2
19.02.1968     1012,6 -5,5           -7,4 -1,4   0,0
20.02.1968     1005,4 -1,8           -6,7 -0,5   2,9
21.02.1968     1005,8 -0,6           -2,5 0,2   6,9
22.02.1968     1003,7 0,4           0,1 4,2   0,7
23.02.1968     1009,4 -1,2           -1,8 2,6   2,2
24.02.1968     1010,3 -4,3           -5,5 -1,7   7,1
25.02.1968     1016,2 -6,2           -7,0 -5,4   3,9
26.02.1968     1021,9 -7,5           -10,6 -5,5   0,0
27.02.1968     1026,1 -5,5           -9,3 -3,8   0,0
28.02.1968     1024,1 -4,7           -6,2 0,2   0,0
29.02.1968     1018,3 -4,2           -8,3 -3,9   0,0
01.03.1968     1016,5 -3,4           -5,6 -1,5   0,0
02.03.1968     1014,7 -5,1           -9,9 -0,1   0,0
03.03.1968     1015,4 -4,2           -11,8 1,4   0,0
04.03.1968     1020,7 -1,5           -5,3 0,3   2,7
05.03.1968     1014,6 0,5           -1,1 0,8   4,5
06.03.1968     996,5 -0,4           -1,4 1,1   3,2
07.03.1968     1009,3 -2,1           -6,0 0,2   0,0
08.03.1968     1013,1 -0,7           -2,3 1,2   0,0
09.03.1968     1009,1 0,3           -2,0 2,7   0,0
10.03.1968     1000,7 -1,0           -1,8 0,7   9,5
11.03.1968     1001,0 -7,4           -10,2 -1,8   4,3
12.03.1968     1017,1 -6,0           -11,4 -1,7   0,0
13.03.1968     1018,5 -1,4           -6,8 0,3   0,0
14.03.1968     1008,9 0,5           -0,8 1,9   1,5
15.03.1968     1000,6 1,0           -1,0 3,4   8,6
16.03.1968     1006,6 0,2           -3,0 2,8   0,0
17.03.1968     1005,1 1,4           -0,2 2,9   1,4
18.03.1968     1004,9 1,7           0,3 3,6   8,7
19.03.1968     1012,1 1,6           -0,5 3,8   0,4
20.03.1968     1006,7 5,4           -1,9 10,5   0,0
21.03.1968     1005,5 6,1           3,8 11,5   6,3
22.03.1968     1006,7 2,7           1,0 8,0   4,4
23.03.1968     1016,6 4,2           0,5 6,6   0,3
24.03.1968     1020,5 8,5           5,0 14,8   0,0
25.03.1968     1021,7 9,3           1,2 18,1   0,0
26.03.1968     1029,1 7,9           2,6 16,9   0,0
27.03.1968     1034,9 5,7           -1,5 12,8   0,0
28.03.1968     1029,3 9,6           -0,5 18,0   0,0
29.03.1968     1021,0 12,1           2,3 21,3   0,0
30.03.1968     1016,9 12,9           4,4 21,0   0,0
31.03.1968     1019,1 4,8           2,0 15,9   2,0
01.04.1968     1016,3 6,4           -0,5 13,1   0,0
02.04.1968     1003,4 7,9           3,5 13,4   0,0
03.04.1968     1002,3 2,5           -0,5 8,6   0,5
04.04.1968     1010,9 2,4           -1,4 7,4   0,0
05.04.1968     1003,9 3,8           1,3 6,8   6,9
06.04.1968     1009,4 1,2           -0,4 5,7   0,1
07.04.1968     1011,7 2,6           -2,3 6,6   0,1
08.04.1968     1023,0 -1,0           -2,9 3,0   0,0
09.04.1968     1027,7 0,0           -6,3 6,1   0,0
10.04.1968     1027,3 -0,4           -3,1 3,5   0,0
11.04.1968     1024,7 -1,0           -2,6 3,0   0,2
12.04.1968     1019,8 -0,3           -4,2 5,3   0,0
13.04.1968     1015,8 2,0           -5,6 9,3   0,0
14.04.1968     1015,3 5,9           -2,0 12,8   0,0
15.04.1968     1014,1 8,0           -0,3 14,4   0,0
16.04.1968     1014,2 9,6           1,4 16,1   0,0
17.04.1968     1017,7 9,9           1,9 17,8   0,0
18.04.1968     1019,4 12,0           3,6 20,0   0,0
19.04.1968     1021,5 13,6           3,6 21,8   0,0
20.04.1968     1021,1 15,8           6,8 23,5   0,0
21.04.1968     1019,0 17,0           6,9 25,4   0,0
22.04.1968     1018,7 18,4           7,9 26,8   0,0
23.04.1968     1018,3 18,6           9,2 26,8   0,0
24.04.1968     1018,9 9,1           7,9 18,2   25,5
25.04.1968     1018,2 6,2           5,3 8,0   15,7
26.04.1968     1016,5 6,3           5,5 8,5   5,3
27.04.1968     1011,9 5,6           4,0 9,9   0,1
28.04.1968     1008,1 6,7           -0,2 13,5   0,7
29.04.1968     1003,8 8,4           0,4 13,8   0,1
30.04.1968     1006,5 7,8           4,7 12,5   2,4
01.05.1968     1008,5 6,8           5,4 11,2   5,3
02.05.1968     1009,9 8,5           5,3 10,9   3,2
03.05.1968     1011,3 9,6           7,8 13,7   0,0
04.05.1968     1006,6 15,3           3,8 21,6   0,0
05.05.1968     1009,1 12,2           9,3 15,9   4,1
06.05.1968     1004,2 13,0           7,6 21,4   6,8
07.05.1968     1010,5 6,7           5,2 10,8   0,6
08.05.1968     1013,1 6,1           1,7 11,0   0,0
09.05.1968     1014,7 10,8           0,8 16,7   0,0
10.05.1968     1013,7 9,6           6,4 14,6   2,8
11.05.1968     1012,5 14,1           3,7 19,1   3,2
12.05.1968     1013,4 7,8           6,3 13,9   9,9
13.05.1968     1023,5 8,4           5,1 12,6   0,0
14.05.1968     1022,7 9,2           3,1 14,9   4,5
15.05.1968     1022,5 10,6           0,7 16,6   0,8
16.05.1968     1016,1 9,9           8,6 13,7   8,6
17.05.1968     1015,5 4,0           2,9 9,0   0,2
18.05.1968     1014,6 4,0           -0,7 7,8   0,9
19.05.1968     1011,8 3,8           1,0 8,8   3,5
20.05.1968     1010,2 5,2           0,1 10,6   0,0
21.05.1968     1011,0 7,5           0,0 12,5   0,0
22.05.1968     1015,3 7,0           4,4 11,2   0,3
23.05.1968     1021,7 5,8           3,1 8,7   0,8
24.05.1968     1022,3 8,2           3,0 12,7   0,0
25.05.1968     1016,7 10,1           4,3 16,5   0,0
26.05.1968     1014,6 13,1           3,7 18,1   0,0
27.05.1968     1015,0 14,8           11,2 19,8   0,0
28.05.1968     1021,0 13,8           11,6 15,2   0,2
29.05.1968     1021,1 12,8           12,2 14,4   0,5
30.05.1968     1020,2 8,8           6,6 13,3   0,1
31.05.1968     1020,5 11,8           6,0 16,0   0,0
01.06.1968     1018,7 11,9           5,8 15,2   0,5
02.06.1968     1015,7 11,0           9,4 13,8   3,0
03.06.1968     1016,1 14,4           8,3 21,0   0,0
04.06.1968     1015,1 18,4           9,7 24,0   0,1
05.06.1968     1016,5 12,2           11,0 17,4   1,2
06.06.1968     1014,9 16,5           5,8 22,4   0,2
07.06.1968     1018,3 13,2           11,4 18,3   0,9
08.06.1968     1015,7 12,4           8,1 16,2   4,1
09.06.1968     1016,3 9,0           8,4 12,0   0,9
10.06.1968     1019,4 6,7           5,3 11,5   1,7
11.06.1968     1019,3 9,8           4,2 14,0   5,3
12.06.1968     1020,5 9,0           6,9 10,3   1,3
13.06.1968     1020,1 14,8           8,4 19,4   0,0
14.06.1968     1017,5 17,2           11,0 22,5   0,0
15.06.1968     1014,3 17,8           13,6 24,9   0,8
16.06.1968     1013,9 17,7           12,1 25,6   9,0
17.06.1968     1015,1 18,1           9,1 22,7   0,0
18.06.1968     1012,2 19,3           12,4 26,9   0,0
19.06.1968     1012,2 19,6           11,6 25,7   0,0
20.06.1968     1011,3 16,0           13,3 20,6   4,0
21.06.1968     1014,3 11,3           9,2 16,3   1,1
22.06.1968     1015,9 11,7           7,0 16,6   0,0
23.06.1968     1007,3 18,5           6,4 24,7   6,2
24.06.1968     1014,9 12,0           10,4 18,1   0,1
25.06.1968     1019,3 14,2           7,2 18,6   0,0
26.06.1968     1019,9 16,0           11,2 20,2   5,1
27.06.1968     1019,4 18,0           8,2 22,1   3,6
28.06.1968     1017,1 20,3           16,1 24,2   0,0
29.06.1968     1021,4 16,2           14,5 21,4   0,0
30.06.1968     1026,9 16,7           9,3 22,6   0,0
01.07.1968     1024,7 18,6           9,9 25,9   0,0
02.07.1968     1019,7 20,4           10,9 27,0   0,0
03.07.1968     1019,8 20,0           11,0 27,1   0,0
04.07.1968     1021,4 16,7           11,9 21,6   0,0
05.07.1968     1017,3 21,8           12,2 28,2   0,0
06.07.1968     1012,9 17,8           12,3 27,1   12,7
07.07.1968     1016,1 15,0           11,0 20,3   0,0
08.07.1968     1017,7 18,8           12,3 23,7   0,0
09.07.1968     1023,8 18,1           12,2 23,2   0,0
10.07.1968     1019,5 19,5           11,0 25,3   6,7
11.07.1968     1009,0 16,6           14,4 20,1   1,2
12.07.1968     1018,3 11,2           7,9 15,6   0,0
13.07.1968     1015,4 13,3           5,3 18,8   0,0
14.07.1968     1011,5 16,8           7,6 23,6   0,1
15.07.1968     1009,4 12,8           11,1 16,7   6,5
16.07.1968     1011,7 12,4           10,3 17,0   2,5
17.07.1968     1012,6 12,5           6,2 18,1   0,0
18.07.1968     1017,8 11,4           8,7 18,0   0,1
19.07.1968     1020,7 11,0           8,0 14,7   5,6
20.07.1968     1021,7 9,9           8,9 12,8   3,1
21.07.1968     1021,7 8,9           5,9 13,1   1,0
22.07.1968     1021,1 11,6           7,2 15,3   6,3
23.07.1968     1013,7 11,3           8,9 14,6   4,1
24.07.1968     1017,8 13,2           9,8 16,4   0,0
25.07.1968     1019,3 13,3           8,1 17,4   0,5
26.07.1968     1019,4 10,3           8,3 13,6   6,8
27.07.1968     1024,2 12,3           9,4 16,1   0,2
28.07.1968     1025,5 13,3           7,4 18,5   0,0
29.07.1968     1023,5 14,1           6,5 19,3   0,0
30.07.1968     1021,8 15,5           7,5 21,7   0,0
31.07.1968     1020,6 16,9           9,8 23,1   0,0
01.08.1968     1017,8 17,1           9,0 23,7   0,0
02.08.1968     1012,6 16,4           11,7 22,6   4,5
03.08.1968     1013,9 15,0           13,5 19,8   16,2
04.08.1968     1018,9 16,3           11,0 22,1   0,0
05.08.1968     1017,8 17,8           10,5 24,4   0,0
06.08.1968     1013,4 15,0           12,7 18,3   0,6
07.08.1968     1011,3 15,7           9,4 21,1   11,7
08.08.1968     1009,8 15,5           13,9 19,2   2,7
09.08.1968     1010,2 14,4           13,4 16,8   32,2
10.08.1968     1011,3 14,2           9,7 21,2   0,0
11.08.1968     1012,1 14,3           12,4 20,3   1,7
12.08.1968     1013,0 13,0           8,4 17,9   0,0
13.08.1968     1007,8 14,9           9,1 19,8   2,8
14.08.1968     1000,3 12,0           10,9 16,1   12,7
15.08.1968     1010,6 10,9           8,8 14,5   0,0
16.08.1968     1010,2 12,6           8,4 15,8   1,1
17.08.1968     1012,3 12,4           7,6 16,0   5,1
18.08.1968     1021,5 9,8           5,8 14,5   5,4
19.08.1968     1023,4 9,4           3,7 16,3   0,0
20.08.1968     1022,7 11,6           10,6 20,9   0,2
21.08.1968     1021,9 15,2           10,0 20,0   0,1
22.08.1968     1022,7 13,6           8,1 19,0   0,0
23.08.1968     1023,8 15,0           8,1 19,7   0,0
24.08.1968     1021,7 15,5           13,9 17,5   0,0
25.08.1968     1020,2 16,1           11,9 21,4   3,5
26.08.1968     1019,7 13,6           12,3 17,7   1,3
27.08.1968     1017,5 14,5           12,1 18,3   0,6
28.08.1968     1014,2 16,0           12,0 21,5   0,4
29.08.1968     1009,1 17,9           12,7 23,8   0,0
30.08.1968     1004,2 14,8           14,2 20,1   22,5
31.08.1968     1005,8 11,2           9,5 15,6   12,9
01.09.1968     1014,6 12,4           9,9 16,5   0,2
02.09.1968     1015,1 14,4           5,8 21,6   0,0
03.09.1968     1013,9 15,6           11,1 21,5   0,0
04.09.1968     1014,9 11,7           10,5 14,3   25,6
05.09.1968     1022,1 11,2           9,9 12,9   0,4
06.09.1968     1024,7 11,7           7,8 16,7   0,0
07.09.1968     1023,3 12,4           8,6 14,0   0,0
08.09.1968     1024,3 14,9           11,2 21,9   0,1
09.09.1968     1023,0 14,6           9,0 19,0   0,0
10.09.1968     1019,9 14,7           9,3 21,3   0,0
11.09.1968     1012,1 14,8           8,2 21,3   5,3
12.09.1968     1012,9 11,5           10,8 14,2   17,7
13.09.1968     1014,3 10,8           6,5 17,0   0,0
14.09.1968     1010,3 11,1           5,0 17,9   0,0
15.09.1968     1006,9 12,9           7,7 16,6   9,2
16.09.1968     1008,2 11,4           9,1 16,5   0,1
17.09.1968     1012,6 10,7           7,5 16,5   3,9
18.09.1968     1013,3 10,4           7,8 14,4   0,0
19.09.1968     1016,3 10,1           7,0 13,3   0,1
20.09.1968     1013,0 11,3           4,3 15,5   0,0
21.09.1968     1005,3 11,9           10,7 13,2   13,4
22.09.1968     1004,5 10,3           8,8 12,6   3,3
23.09.1968     1002,7 9,3           8,6 13,0   5,3
24.09.1968     1005,1 8,8           7,9 10,1   5,0
25.09.1968     1017,7 8,0           6,8 11,9   0,0
26.09.1968     1020,9 9,4           3,0 15,4   0,0
27.09.1968     1019,5 11,6           6,5 18,1   0,0
28.09.1968     1018,1 10,2           7,3 18,0   13,9
29.09.1968     1016,9 8,6           4,5 13,3   1,0
30.09.1968     1015,7 8,3           7,0 10,8   13,8
01.10.1968     1018,6 7,4           5,0 9,6   1,0
02.10.1968     1018,3 9,9           6,6 10,7   9,1
03.10.1968     1018,9 10,6           10,2 12,5   1,0
04.10.1968     1021,7 12,0           10,0 13,1   0,2
05.10.1968     1023,5 13,6           12,0 15,6   0,2
06.10.1968     1018,9 12,9           9,8 17,1   1,0
07.10.1968     1012,5 9,5           8,4 12,7   0,7
08.10.1968     1009,9 11,9           6,4 16,9   0,0
09.10.1968     1012,1 10,8           9,1 13,2   2,2
10.10.1968     1018,9 12,0           10,4 13,3   0,3
11.10.1968     1019,4 11,4           10,0 13,9   2,7
12.10.1968     1016,9 14,8           10,0 17,2   4,0
13.10.1968     1016,6 11,8           10,4 15,4   1,0
14.10.1968     1018,2 9,3           9,0 10,6   4,7
15.10.1968     1020,9 7,9           5,3 12,6   0,7
16.10.1968     1020,9 6,5           -0,1 12,5   0,0
17.10.1968     1021,0 7,6           5,5 10,5   0,2
18.10.1968     1021,4 6,6           5,3 9,8   0,1
19.10.1968     1028,6 3,9           1,3 8,8   0,0
20.10.1968     1030,7 2,8           -3,4 9,6   0,0
21.10.1968     1027,3 4,8           -2,1 14,0   0,0
22.10.1968     1023,5 3,9           -1,4 13,6   0,1
23.10.1968     1019,8 6,6           -0,4 13,7   0,1
24.10.1968     1013,1 6,2           0,8 10,4   0,2
25.10.1968     1011,8 5,7           3,0 6,7   0,1
26.10.1968     1013,9 5,0           4,2 6,5   0,0
27.10.1968     1016,9 4,0           3,5 4,6   0,0
28.10.1968     1016,7 6,3           3,7 12,2   0,0
29.10.1968     1014,2 9,4           2,6 12,0   0,7
30.10.1968     1017,9 9,2           6,9 14,8   0,0
31.10.1968     1010,6 11,7           7,2 19,3   0,0
01.11.1968     1005,7 9,2           7,1 14,8   0,0
02.11.1968     999,4 8,0           6,5 11,3   0,0
03.11.1968     996,1 9,6           6,5 12,2   0,0
04.11.1968     1008,9 5,6           3,5 9,8   7,2
05.11.1968     1016,3 0,9           0,0 3,7   9,7
06.11.1968     1012,2 2,5           1,0 4,2   1,0
07.11.1968     1011,3 0,7           0,1 1,8   0,2
08.11.1968     1011,0 2,6           -0,6 5,5   0,1
09.11.1968     1013,9 4,6           2,5 6,1   1,5
10.11.1968     1014,7 0,9           -1,3 4,8   0,7
11.11.1968     1017,4 -0,4           -3,4 0,7   0,0
12.11.1968     1021,1 2,4           -0,3 4,0   0,0
13.11.1968     1020,9 0,6           -0,6 2,5   0,0
14.11.1968     1022,7 -4,4           -6,5 0,5   0,0
15.11.1968     1018,5 -5,7           -7,1 -4,9   0,1
16.11.1968     1007,9 -4,4           -5,6 -4,0   1,4
17.11.1968     1006,1 -3,1           -4,4 -2,8   0,5
18.11.1968     1007,1 -1,6           -3,1 -1,2   4,3
19.11.1968     1014,1 -2,4           -2,6 -1,1   0,0
20.11.1968     1022,7 -1,5           -3,0 -1,0   0,0
21.11.1968     1027,9 -0,5           -1,4 0,0   0,0
22.11.1968     1024,9 0,6           -0,5 3,0   0,0
23.11.1968     1017,5 0,2           -0,7 0,8   2,3
24.11.1968     1012,3 3,6           0,0 6,1   1,8
25.11.1968     1021,7 3,1           2,0 5,2   0,0
26.11.1968     1021,9 2,9           0,0 7,8   0,1
27.11.1968     1019,0 1,7           -0,1 7,1   0,1
28.11.1968     1014,7 -2,3           -3,3 0,3   0,1
29.11.1968     1010,5 -3,0           -3,8 -2,8   0,0
30.11.1968     1013,7 -0,7           -2,8 1,2   0,0
01.12.1968     1021,8 -1,6           -3,4 -0,5   0,1
02.12.1968     1021,7 -2,1           -3,1 -1,2   0,0
03.12.1968     1020,5 -2,3           -2,8 -1,7   0,0
04.12.1968     1020,7 -2,6           -2,9 -1,9   0,0
05.12.1968     1020,6 -4,3           -4,6 -2,9   0,0
06.12.1968     1018,9 -4,5           -5,2 -3,9   0,0
07.12.1968     1017,3 -5,3           -5,8 -4,4   0,0
08.12.1968     1015,0 -5,8           -6,3 -5,0   0,0
09.12.1968     1009,0 -4,7           -6,1 -3,9   0,0
10.12.1968     1011,5 -5,0           -7,0 -1,3   0,1
11.12.1968     1018,1 -9,1           -13,0 -4,9   0,0
12.12.1968     1019,8 -8,7           -12,1 -3,7   0,0
13.12.1968     1014,2 -5,7           -12,2 -1,1   0,0
14.12.1968     1006,9 -7,0           -9,8 -4,1   0,1
15.12.1968     1007,5 -5,6           -9,0 -2,2   0,1
16.12.1968     1000,2 -5,5           -7,9 -3,8   0,0
17.12.1968     994,1 -3,8           -5,4 -1,5   1,3
18.12.1968     989,3 -2,3           -4,6 -1,5   0,7
19.12.1968     997,8 -0,8           -2,7 1,2   3,4
20.12.1968     1012,2 -2,6           -4,3 -0,8   0,0
21.12.1968     1011,8 1,0           -2,6 2,2   1,6
22.12.1968     1017,0 1,9           1,1 2,5   2,6
23.12.1968     1009,0 2,7           1,5 4,9   1,6
24.12.1968     1009,7 -0,6           -0,9 1,7   1,8
25.12.1968     1006,6 -1,1           -1,9 -0,1   1,6
26.12.1968     1006,1 -3,8           -5,4 -1,9   1,9
27.12.1968     1003,4 -5,0           -6,7 -4,3   0,5
28.12.1968     999,8 -5,4           -7,1 -3,7   2,2
29.12.1968     1003,9 -9,6           -12,3 -5,8   0,6
30.12.1968     1012,6 -8,0           -12,1 -5,4   0,0
31.12.1968     1018,2 -8,3           -10,2 -7,8   0,7